METAR Data
IDs: Format: Raw Decoded Include TAF

Data at: 1334 UTC 26 Feb 2021

EHLW 261325Z AUTO 30012KT 260V330 9999 FEW014 08/05 Q1034 BLU TEMPO SCT014